createdAt,value
2023-06-01T00:00:11.731Z,18.50
2023-06-01T00:00:23.806Z,18.50
2023-06-01T00:00:36.096Z,18.50
2023-06-01T00:00:47.979Z,18.50
2023-06-01T00:01:01.888Z,18.50
2023-06-01T00:01:14.246Z,18.50
2023-06-01T00:01:26.046Z,18.50
2023-06-01T00:01:38.536Z,18.50
2023-06-01T00:01:50.381Z,18.50
2023-06-01T00:02:02.224Z,18.50
2023-06-01T00:02:14.395Z,18.50
2023-06-01T00:02:27.400Z,18.50
2023-06-01T00:02:39.396Z,18.50
2023-06-01T00:02:51.796Z,18.50
2023-06-01T00:03:04.090Z,18.50
2023-06-01T00:03:16.223Z,18.50
2023-06-01T00:03:30.553Z,18.50
2023-06-01T00:03:43.104Z,18.50
2023-06-01T00:03:55.016Z,18.50
2023-06-01T00:04:07.019Z,18.50
2023-06-01T00:04:18.986Z,18.50
2023-06-01T00:04:30.768Z,18.50
2023-06-01T00:04:42.706Z,18.50
2023-06-01T00:04:54.666Z,18.40
2023-06-01T00:05:06.804Z,18.50
2023-06-01T00:05:18.615Z,18.50
2023-06-01T00:05:30.530Z,18.50
2023-06-01T00:05:42.332Z,18.50
2023-06-01T00:05:54.155Z,18.50
2023-06-01T00:06:06.348Z,18.50
2023-06-01T00:06:18.225Z,18.50
2023-06-01T00:06:31.485Z,18.50
2023-06-01T00:06:43.371Z,18.50
2023-06-01T00:06:55.993Z,18.50
2023-06-01T00:07:11.429Z,18.50
2023-06-01T00:07:24.885Z,18.50
2023-06-01T00:07:36.779Z,18.50
2023-06-01T00:07:48.518Z,18.50
2023-06-01T00:08:00.316Z,18.50
2023-06-01T00:08:12.097Z,18.50
2023-06-01T00:08:23.861Z,18.50
2023-06-01T00:08:35.597Z,18.50
2023-06-01T00:08:47.410Z,18.50
2023-06-01T00:08:59.214Z,18.40
2023-06-01T00:09:11.005Z,18.50
2023-06-01T00:09:23.001Z,18.50
2023-06-01T00:09:34.748Z,18.50
2023-06-01T00:09:46.591Z,18.50
2023-06-01T00:09:58.327Z,18.50
2023-06-01T00:10:10.709Z,18.40
2023-06-01T00:10:22.551Z,18.50
2023-06-01T00:10:34.326Z,18.50
2023-06-01T00:10:46.140Z,18.50
2023-06-01T00:11:00.479Z,18.50
2023-06-01T00:11:12.485Z,18.50
2023-06-01T00:11:24.500Z,18.50
2023-06-01T00:11:36.426Z,18.50
2023-06-01T00:11:48.221Z,18.40
2023-06-01T00:12:00.100Z,18.50
2023-06-01T00:12:11.950Z,18.40
2023-06-01T00:12:23.717Z,18.40
2023-06-01T00:12:35.486Z,18.40
2023-06-01T00:12:47.233Z,18.40
2023-06-01T00:12:59.032Z,18.40
2023-06-01T00:13:11.014Z,18.40
2023-06-01T00:13:22.859Z,18.40
2023-06-01T00:13:34.988Z,18.40
2023-06-01T00:13:47.066Z,18.40
2023-06-01T00:13:58.821Z,18.40
2023-06-01T00:14:10.582Z,18.40
2023-06-01T00:14:22.312Z,18.40
2023-06-01T00:14:34.193Z,18.40
2023-06-01T00:14:46.046Z,18.40
2023-06-01T00:14:58.842Z,18.40
2023-06-01T00:15:10.899Z,18.40
2023-06-01T00:15:22.751Z,18.30
2023-06-01T00:15:34.538Z,18.40
2023-06-01T00:15:46.855Z,18.30
2023-06-01T00:15:58.782Z,18.30
2023-06-01T00:16:11.474Z,18.30
2023-06-01T00:16:23.915Z,18.30
2023-06-01T00:16:35.800Z,18.30
2023-06-01T00:16:47.662Z,18.40
2023-06-01T00:17:00.121Z,18.40
2023-06-01T00:17:11.999Z,18.40
2023-06-01T00:17:24.626Z,18.40
2023-06-01T00:17:36.686Z,18.40
2023-06-01T00:17:52.646Z,18.40
2023-06-01T00:18:06.896Z,18.40
2023-06-01T00:18:19.281Z,18.40
2023-06-01T00:18:31.503Z,18.40
2023-06-01T00:18:43.496Z,18.40
2023-06-01T00:18:57.256Z,18.40
2023-06-01T00:19:09.018Z,18.40
2023-06-01T00:19:22.190Z,18.40
2023-06-01T00:19:36.054Z,18.40
2023-06-01T00:19:48.979Z,18.40
2023-06-01T00:20:02.238Z,18.40
2023-06-01T00:20:14.109Z,18.40
2023-06-01T00:20:29.983Z,18.40
2023-06-01T00:20:42.216Z,18.30
2023-06-01T00:20:54.316Z,18.40
2023-06-01T00:21:06.651Z,18.30
2023-06-01T00:21:18.504Z,18.30
2023-06-01T00:21:33.041Z,18.40
2023-06-01T00:21:44.919Z,18.30
2023-06-01T00:21:57.020Z,18.30
2023-06-01T00:22:09.009Z,18.30
2023-06-01T00:22:21.100Z,18.30
2023-06-01T00:22:35.453Z,18.30
2023-06-01T00:22:47.648Z,18.30
2023-06-01T00:23:03.645Z,18.30
2023-06-01T00:23:16.822Z,18.30
2023-06-01T00:23:29.611Z,18.30
2023-06-01T00:23:42.083Z,18.40
2023-06-01T00:23:53.993Z,18.40
2023-06-01T00:24:06.229Z,18.30
2023-06-01T00:24:18.032Z,18.40
2023-06-01T00:24:29.871Z,18.40
2023-06-01T00:24:41.616Z,18.40
2023-06-01T00:24:53.382Z,18.40
2023-06-01T00:25:08.892Z,18.40
2023-06-01T00:25:20.692Z,18.40
2023-06-01T00:25:32.536Z,18.40
2023-06-01T00:25:44.301Z,18.40
2023-06-01T00:25:56.125Z,18.40
2023-06-01T00:26:08.595Z,18.40
2023-06-01T00:26:20.572Z,18.40
2023-06-01T00:26:33.308Z,18.40
2023-06-01T00:26:45.106Z,18.30
2023-06-01T00:26:56.879Z,18.40
2023-06-01T00:27:08.958Z,18.30
2023-06-01T00:27:21.029Z,18.40
2023-06-01T00:27:32.876Z,18.30
2023-06-01T00:27:44.704Z,18.40
2023-06-01T00:27:57.334Z,18.30
2023-06-01T00:28:09.254Z,18.30
2023-06-01T00:28:21.114Z,18.30
2023-06-01T00:28:32.902Z,18.30
2023-06-01T00:28:44.631Z,18.40
2023-06-01T00:28:56.486Z,18.40
2023-06-01T00:29:08.300Z,18.40
2023-06-01T00:29:20.037Z,18.30
2023-06-01T00:29:31.795Z,18.40
2023-06-01T00:29:43.657Z,18.40
2023-06-01T00:29:55.713Z,18.30
2023-06-01T00:30:08.108Z,18.30
2023-06-01T00:30:19.881Z,18.40
2023-06-01T00:30:31.663Z,18.30
2023-06-01T00:30:43.481Z,18.30
2023-06-01T00:30:55.458Z,18.30
2023-06-01T00:31:07.318Z,18.30
2023-06-01T00:31:19.125Z,18.30
2023-06-01T00:31:31.044Z,18.30
2023-06-01T00:31:43.391Z,18.30
2023-06-01T00:31:55.289Z,18.30
2023-06-01T00:32:07.685Z,18.30
2023-06-01T00:32:19.450Z,18.30
2023-06-01T00:32:31.326Z,18.30
2023-06-01T00:32:43.154Z,18.30
2023-06-01T00:32:55.002Z,18.30
2023-06-01T00:33:07.008Z,18.30
2023-06-01T00:33:18.767Z,18.30
2023-06-01T00:33:30.659Z,18.20
2023-06-01T00:33:42.444Z,18.30
2023-06-01T00:33:54.247Z,18.30
2023-06-01T00:34:06.129Z,18.30
2023-06-01T00:34:18.005Z,18.30
2023-06-01T00:34:29.818Z,18.30
2023-06-01T00:34:41.600Z,18.30
2023-06-01T00:34:53.425Z,18.30
2023-06-01T00:35:05.646Z,18.30
2023-06-01T00:35:17.491Z,18.30
2023-06-01T00:35:29.269Z,18.30
2023-06-01T00:35:41.768Z,18.30
2023-06-01T00:35:53.628Z,18.30
2023-06-01T00:36:05.799Z,18.30
2023-06-01T00:36:17.608Z,18.30
2023-06-01T00:36:29.560Z,18.30
2023-06-01T00:36:41.327Z,18.30
2023-06-01T00:36:53.101Z,18.30
2023-06-01T00:37:05.013Z,18.30
2023-06-01T00:37:16.769Z,18.30
2023-06-01T00:37:29.649Z,18.30
2023-06-01T00:37:41.398Z,18.30
2023-06-01T00:37:53.314Z,18.30
2023-06-01T00:38:05.242Z,18.30
2023-06-01T00:38:17.096Z,18.20
2023-06-01T00:38:28.849Z,18.30
2023-06-01T00:38:40.601Z,18.30
2023-06-01T00:38:52.335Z,18.30
2023-06-01T00:39:05.090Z,18.30
2023-06-01T00:39:17.018Z,18.30
2023-06-01T00:39:28.785Z,18.20
2023-06-01T00:39:40.932Z,18.30
2023-06-01T00:39:52.723Z,18.20
2023-06-01T00:40:04.849Z,18.20
2023-06-01T00:40:16.674Z,18.30
2023-06-01T00:40:28.508Z,18.20
2023-06-01T00:40:40.439Z,18.30
2023-06-01T00:40:52.225Z,18.30
2023-06-01T00:41:04.321Z,18.20
2023-06-01T00:41:16.180Z,18.20
2023-06-01T00:41:27.979Z,18.30
2023-06-01T00:41:39.852Z,18.30
2023-06-01T00:41:51.650Z,18.20
2023-06-01T00:42:03.681Z,18.30
2023-06-01T00:42:15.458Z,18.20
2023-06-01T00:42:27.330Z,18.20
2023-06-01T00:42:39.229Z,18.20
2023-06-01T00:42:51.137Z,18.20
2023-06-01T00:43:02.968Z,18.20
2023-06-01T00:43:14.766Z,18.20
2023-06-01T00:43:26.494Z,18.20
2023-06-01T00:43:38.237Z,18.20
2023-06-01T00:43:50.093Z,18.20
2023-06-01T00:44:01.841Z,18.20
2023-06-01T00:44:13.677Z,18.20
2023-06-01T00:44:25.641Z,18.20
2023-06-01T00:44:37.434Z,18.20
2023-06-01T00:44:49.735Z,18.20
2023-06-01T00:45:01.554Z,18.20
2023-06-01T00:45:13.402Z,18.20
2023-06-01T00:45:25.160Z,18.20
2023-06-01T00:45:38.679Z,18.20
2023-06-01T00:45:50.553Z,18.20
2023-06-01T00:46:02.429Z,18.20
2023-06-01T00:46:15.440Z,18.20
2023-06-01T00:46:27.928Z,18.20
2023-06-01T00:46:39.826Z,18.30
2023-06-01T00:46:52.305Z,18.20
2023-06-01T00:47:04.476Z,18.30
2023-06-01T00:47:16.568Z,18.20
2023-06-01T00:47:28.462Z,18.20
2023-06-01T00:47:42.804Z,18.20
2023-06-01T00:47:54.721Z,18.20
2023-06-01T00:48:06.948Z,18.20
2023-06-01T00:48:18.754Z,18.20
2023-06-01T00:48:30.522Z,18.20
2023-06-01T00:48:42.319Z,18.20
2023-06-01T00:48:54.756Z,18.20
2023-06-01T00:49:06.587Z,18.20
2023-06-01T00:49:18.618Z,18.20
2023-06-01T00:49:30.478Z,18.20
2023-06-01T00:49:42.411Z,18.20
2023-06-01T00:49:54.207Z,18.20
2023-06-01T00:50:06.400Z,18.20
2023-06-01T00:50:18.281Z,18.20
2023-06-01T00:50:30.599Z,18.20
2023-06-01T00:50:43.215Z,18.20
2023-06-01T00:50:55.281Z,18.20
2023-06-01T00:51:07.029Z,18.20
2023-06-01T00:51:18.906Z,18.20
2023-06-01T00:51:30.678Z,18.20
2023-06-01T00:51:42.473Z,18.20
2023-06-01T00:51:54.324Z,18.20
2023-06-01T00:52:06.532Z,18.20
2023-06-01T00:52:18.300Z,18.10
2023-06-01T00:52:30.098Z,18.10
2023-06-01T00:52:42.004Z,18.10
2023-06-01T00:52:53.856Z,18.10
2023-06-01T00:53:08.347Z,18.10
2023-06-01T00:53:20.826Z,18.10
2023-06-01T00:53:32.650Z,18.10
2023-06-01T00:53:44.418Z,18.10
2023-06-01T00:53:56.298Z,18.10
2023-06-01T00:54:08.506Z,18.10
2023-06-01T00:54:20.918Z,18.10
2023-06-01T00:54:32.674Z,18.10
2023-06-01T00:54:44.423Z,18.10
2023-06-01T00:54:56.205Z,18.10
2023-06-01T00:55:08.507Z,18.10
2023-06-01T00:55:21.633Z,18.10
2023-06-01T00:55:33.456Z,18.10
2023-06-01T00:55:45.744Z,18.10
2023-06-01T00:55:57.514Z,18.10
2023-06-01T00:56:10.032Z,18.00
2023-06-01T00:56:23.130Z,18.10
2023-06-01T00:56:36.419Z,18.10
2023-06-01T00:56:48.257Z,18.00
2023-06-01T00:57:00.499Z,18.00
2023-06-01T00:57:12.276Z,18.00
2023-06-01T00:57:27.557Z,18.00
2023-06-01T00:57:40.276Z,18.00
2023-06-01T00:57:52.119Z,18.00
2023-06-01T00:58:03.949Z,18.00
2023-06-01T00:58:16.262Z,18.00
2023-06-01T00:58:28.011Z,18.00
2023-06-01T00:58:40.763Z,18.00
2023-06-01T00:58:52.657Z,18.00
2023-06-01T00:59:04.451Z,18.00
2023-06-01T00:59:16.179Z,18.00
2023-06-01T00:59:27.980Z,18.00
2023-06-01T00:59:39.952Z,18.00
2023-06-01T00:59:51.682Z,17.90
2023-06-01T01:00:09.962Z,17.90
2023-06-01T01:00:23.716Z,17.90
2023-06-01T01:00:35.530Z,17.90
2023-06-01T01:00:49.399Z,17.90
2023-06-01T01:01:02.671Z,17.90
2023-06-01T01:01:20.516Z,17.90
2023-06-01T01:01:32.985Z,17.90
2023-06-01T01:01:45.112Z,17.90
2023-06-01T01:01:57.012Z,17.90
2023-06-01T01:02:09.291Z,17.90
2023-06-01T01:02:22.482Z,17.90
2023-06-01T01:02:35.420Z,17.80
2023-06-01T01:02:49.791Z,17.90
2023-06-01T01:03:08.397Z,17.90
2023-06-01T01:03:22.651Z,17.90
2023-06-01T01:03:36.023Z,17.90
2023-06-01T01:03:58.429Z,17.80
2023-06-01T01:04:11.808Z,17.80
2023-06-01T01:04:27.347Z,17.90
2023-06-01T01:04:39.515Z,17.80
2023-06-01T01:04:53.927Z,17.80
2023-06-01T01:05:10.520Z,17.80
2023-06-01T01:05:22.301Z,17.90
2023-06-01T01:05:34.594Z,17.80
2023-06-01T01:05:46.392Z,17.80
2023-06-01T01:06:13.014Z,17.90
2023-06-01T01:06:42.929Z,17.80
2023-06-01T01:07:04.929Z,17.90
2023-06-01T01:07:22.062Z,17.90
2023-06-01T01:07:36.641Z,17.90
2023-06-01T01:08:03.891Z,17.90
2023-06-01T01:08:25.815Z,17.90
2023-06-01T01:08:50.957Z,17.90
2023-06-01T01:09:25.070Z,17.80
2023-06-01T01:10:00.454Z,17.90
2023-06-01T01:10:27.433Z,17.80
2023-06-01T01:10:40.539Z,17.80
2023-06-01T01:11:10.316Z,17.80
2023-06-01T01:11:24.600Z,17.80
2023-06-01T01:11:37.757Z,17.90
2023-06-01T01:11:54.090Z,17.80
2023-06-01T01:12:11.134Z,17.80
2023-06-01T01:12:27.824Z,17.80
2023-06-01T01:12:48.405Z,17.80
2023-06-01T01:13:03.004Z,17.80
2023-06-01T01:13:28.165Z,17.90
2023-06-01T01:13:51.629Z,17.90
2023-06-01T01:14:15.402Z,17.90
2023-06-01T01:14:49.719Z,17.90
2023-06-01T01:15:10.164Z,17.90
2023-06-01T01:15:27.301Z,17.90
2023-06-01T01:15:54.558Z,17.90
2023-06-01T01:16:12.008Z,17.90
2023-06-01T01:16:31.960Z,17.90
2023-06-01T01:16:48.926Z,17.90
2023-06-01T01:17:11.571Z,17.90
2023-06-01T01:17:40.088Z,17.90
2023-06-01T01:17:55.427Z,17.90
2023-06-01T01:18:12.023Z,17.90
2023-06-01T01:18:33.659Z,17.90
2023-06-01T01:18:55.978Z,17.90
2023-06-01T01:19:29.031Z,17.90
2023-06-01T01:20:02.051Z,17.90
2023-06-01T01:20:16.450Z,17.90
2023-06-01T01:20:30.002Z,17.90
2023-06-01T01:20:42.720Z,17.90
2023-06-01T01:20:59.487Z,17.90
2023-06-01T01:21:29.284Z,17.90
2023-06-01T01:21:42.034Z,18.00
2023-06-01T01:22:04.690Z,18.00
2023-06-01T01:22:44.426Z,18.00
2023-06-01T01:23:14.967Z,18.00
2023-06-01T01:23:39.637Z,18.00
2023-06-01T01:24:13.054Z,18.00
2023-06-01T01:25:04.672Z,18.00
2023-06-01T01:25:19.463Z,18.00
2023-06-01T01:25:49.589Z,18.00
2023-06-01T01:26:33.354Z,18.00
2023-06-01T01:27:06.779Z,18.00
2023-06-01T01:27:33.469Z,18.00
2023-06-01T01:28:00.442Z,17.90
2023-06-01T01:28:25.882Z,17.90
2023-06-01T01:28:59.356Z,17.90
2023-06-01T01:29:11.151Z,17.90
2023-06-01T01:29:24.773Z,17.80
2023-06-01T01:29:36.565Z,17.80
2023-06-01T01:29:48.436Z,17.80
2023-06-01T01:30:03.936Z,17.80
2023-06-01T01:30:15.827Z,17.80
2023-06-01T01:30:28.027Z,17.80
2023-06-01T01:30:42.028Z,17.80
2023-06-01T01:30:54.965Z,17.80
2023-06-01T01:31:07.530Z,17.70
2023-06-01T01:31:21.988Z,17.70
2023-06-01T01:31:33.937Z,17.70
2023-06-01T01:31:46.708Z,17.70
2023-06-01T01:31:58.616Z,17.70
2023-06-01T01:32:10.384Z,17.70
2023-06-01T01:32:23.285Z,17.70
2023-06-01T01:32:36.754Z,17.70
2023-06-01T01:32:49.756Z,17.70
2023-06-01T01:33:01.600Z,17.70
2023-06-01T01:33:13.422Z,17.70
2023-06-01T01:33:25.254Z,17.60
2023-06-01T01:33:37.032Z,17.60
2023-06-01T01:33:48.843Z,17.60
2023-06-01T01:34:00.675Z,17.60
2023-06-01T01:34:12.551Z,17.60
2023-06-01T01:34:24.331Z,17.60
2023-06-01T01:34:36.182Z,17.60
2023-06-01T01:34:48.008Z,17.60
2023-06-01T01:35:00.126Z,17.60
2023-06-01T01:35:11.923Z,17.60
2023-06-01T01:35:27.318Z,17.60
2023-06-01T01:35:39.876Z,17.60
2023-06-01T01:35:51.914Z,17.50
2023-06-01T01:36:03.797Z,17.60
2023-06-01T01:36:15.844Z,17.60
2023-06-01T01:36:27.706Z,17.60
2023-06-01T01:36:39.519Z,17.60
2023-06-01T01:36:51.367Z,17.60
2023-06-01T01:37:03.283Z,17.60
2023-06-01T01:37:15.066Z,17.60
2023-06-01T01:37:26.921Z,17.60
2023-06-01T01:37:38.714Z,17.60
2023-06-01T01:37:53.592Z,17.60
2023-06-01T01:38:05.624Z,17.60
2023-06-01T01:38:17.393Z,17.50
2023-06-01T01:38:29.185Z,17.50
2023-06-01T01:38:40.986Z,17.60
2023-06-01T01:38:52.834Z,17.50
2023-06-01T01:39:04.651Z,17.50
2023-06-01T01:39:16.529Z,17.50
2023-06-01T01:39:28.353Z,17.50
2023-06-01T01:39:40.166Z,17.50
2023-06-01T01:39:52.163Z,17.50
2023-06-01T01:40:04.524Z,17.50
2023-06-01T01:40:16.376Z,17.50
2023-06-01T01:40:28.120Z,17.40
2023-06-01T01:40:39.904Z,17.40
2023-06-01T01:40:53.730Z,17.50
2023-06-01T01:41:05.871Z,17.40
2023-06-01T01:41:17.704Z,17.40
2023-06-01T01:41:30.054Z,17.40
2023-06-01T01:41:41.835Z,17.40
2023-06-01T01:41:53.617Z,17.50
2023-06-01T01:42:06.318Z,17.40
2023-06-01T01:42:18.209Z,17.40
2023-06-01T01:42:29.997Z,17.40
2023-06-01T01:42:41.888Z,17.40
2023-06-01T01:42:53.682Z,17.40
2023-06-01T01:43:05.501Z,17.40
2023-06-01T01:43:17.321Z,17.40
2023-06-01T01:43:29.118Z,17.30
2023-06-01T01:43:41.109Z,17.30
2023-06-01T01:43:52.939Z,17.40
2023-06-01T01:44:05.198Z,17.40
2023-06-01T01:44:16.960Z,17.30
2023-06-01T01:44:30.337Z,17.40
2023-06-01T01:44:42.111Z,17.40
2023-06-01T01:44:54.024Z,17.40
2023-06-01T01:45:06.426Z,17.30
2023-06-01T01:45:20.659Z,17.40
2023-06-01T01:45:32.761Z,17.30
2023-06-01T01:45:44.585Z,17.30
2023-06-01T01:46:01.158Z,17.40
2023-06-01T01:46:29.439Z,17.30
2023-06-01T01:47:02.680Z,17.30
2023-06-01T01:47:21.324Z,17.30
2023-06-01T01:47:36.622Z,17.30
2023-06-01T01:47:52.741Z,17.30
2023-06-01T01:48:11.413Z,17.30
2023-06-01T01:48:31.415Z,17.30
2023-06-01T01:48:53.262Z,17.30
2023-06-01T01:49:13.815Z,17.30
2023-06-01T01:49:31.582Z,17.30
2023-06-01T01:49:48.183Z,17.30
2023-06-01T01:50:02.389Z,17.30
2023-06-01T01:50:14.156Z,17.30
2023-06-01T01:50:29.098Z,17.30
2023-06-01T01:50:45.432Z,17.30
2023-06-01T01:50:59.648Z,17.30
2023-06-01T01:51:20.737Z,17.30
2023-06-01T01:51:51.795Z,17.30
2023-06-01T01:52:08.018Z,17.30
2023-06-01T01:52:22.751Z,17.30
2023-06-01T01:52:39.918Z,17.30
2023-06-01T01:52:51.666Z,17.30
2023-06-01T01:53:03.529Z,17.30
2023-06-01T01:53:15.457Z,17.30
2023-06-01T01:53:27.356Z,17.30
2023-06-01T01:53:39.189Z,17.30
2023-06-01T01:53:52.747Z,17.30
2023-06-01T01:54:06.597Z,17.30
2023-06-01T01:54:21.444Z,17.30
2023-06-01T01:54:33.419Z,17.30
2023-06-01T01:54:46.226Z,17.30
2023-06-01T01:54:58.034Z,17.30
2023-06-01T01:55:10.164Z,17.30
2023-06-01T01:55:24.767Z,17.30
2023-06-01T01:55:36.704Z,17.30
2023-06-01T01:55:48.517Z,17.30
2023-06-01T01:56:01.111Z,17.30
2023-06-01T01:56:13.376Z,17.30
2023-06-01T01:56:25.113Z,17.30
2023-06-01T01:56:37.212Z,17.30
2023-06-01T01:56:49.030Z,17.30
2023-06-01T01:57:01.881Z,17.30
2023-06-01T01:57:14.040Z,17.30
2023-06-01T01:57:25.794Z,17.30
2023-06-01T01:57:37.783Z,17.30
2023-06-01T01:57:49.525Z,17.20
2023-06-01T01:58:01.431Z,17.20
2023-06-01T01:58:13.239Z,17.20
2023-06-01T01:58:25.351Z,17.20
2023-06-01T01:58:37.477Z,17.30
2023-06-01T01:58:49.344Z,17.30
2023-06-01T01:59:01.096Z,17.20
2023-06-01T01:59:13.096Z,17.20
2023-06-01T01:59:24.893Z,17.20
2023-06-01T01:59:36.868Z,17.20
2023-06-01T01:59:48.661Z,17.20
2023-06-01T02:00:01.175Z,17.20
2023-06-01T02:00:14.991Z,17.20
2023-06-01T02:00:27.099Z,17.20
2023-06-01T02:00:38.914Z,17.20
2023-06-01T02:00:50.678Z,17.20
2023-06-01T02:01:02.741Z,17.20
2023-06-01T02:01:14.624Z,17.20
2023-06-01T02:01:26.899Z,17.20
2023-06-01T02:01:41.538Z,17.20
2023-06-01T02:01:53.590Z,17.20
2023-06-01T02:02:05.908Z,17.20
2023-06-01T02:02:18.334Z,17.20
2023-06-01T02:02:30.644Z,17.20
2023-06-01T02:02:42.590Z,17.20
2023-06-01T02:02:54.494Z,17.20
2023-06-01T02:03:16.177Z,17.20
2023-06-01T02:03:28.170Z,17.20
2023-06-01T02:03:40.090Z,17.20
2023-06-01T02:04:12.177Z,17.10
2023-06-01T02:04:23.987Z,17.10
2023-06-01T02:04:42.401Z,17.10
2023-06-01T02:04:54.334Z,17.10
2023-06-01T02:05:06.793Z,17.10
2023-06-01T02:05:18.545Z,17.10
2023-06-01T02:05:30.417Z,17.10
2023-06-01T02:05:42.185Z,17.10
2023-06-01T02:05:53.902Z,17.10
2023-06-01T02:06:06.476Z,17.10
2023-06-01T02:06:18.282Z,17.10
2023-06-01T02:06:30.132Z,17.10
2023-06-01T02:06:41.933Z,17.10
2023-06-01T02:06:53.951Z,17.10
2023-06-01T02:07:06.226Z,17.10
2023-06-01T02:07:17.982Z,17.10
2023-06-01T02:07:29.823Z,17.10
2023-06-01T02:07:41.586Z,17.10
2023-06-01T02:07:53.342Z,17.10
2023-06-01T02:08:05.296Z,17.10
2023-06-01T02:08:17.130Z,17.10
2023-06-01T02:08:29.083Z,17.10
2023-06-01T02:08:40.873Z,17.10
2023-06-01T02:08:52.700Z,17.10
2023-06-01T02:09:07.892Z,17.10
2023-06-01T02:09:19.695Z,17.10
2023-06-01T02:09:31.498Z,17.10
2023-06-01T02:09:43.375Z,17.10
2023-06-01T02:09:55.121Z,17.10
2023-06-01T02:10:09.469Z,17.10
2023-06-01T02:10:21.377Z,17.10
2023-06-01T02:10:33.231Z,17.10
2023-06-01T02:10:45.265Z,17.10
2023-06-01T02:10:57.036Z,17.10
2023-06-01T02:11:08.835Z,17.10
2023-06-01T02:11:20.792Z,17.10
2023-06-01T02:11:32.552Z,17.10
2023-06-01T02:11:44.731Z,17.10
2023-06-01T02:11:56.484Z,17.10
2023-06-01T02:12:08.587Z,17.10
2023-06-01T02:12:20.449Z,17.10
2023-06-01T02:12:32.284Z,17.10
2023-06-01T02:12:44.472Z,17.10
2023-06-01T02:12:56.339Z,17.10
2023-06-01T02:13:08.103Z,17.10
2023-06-01T02:13:19.858Z,17.10
2023-06-01T02:13:31.656Z,17.10
2023-06-01T02:13:43.408Z,17.10
2023-06-01T02:13:55.267Z,17.10
2023-06-01T02:14:07.086Z,17.10
2023-06-01T02:14:18.923Z,17.10
2023-06-01T02:14:31.024Z,17.10
2023-06-01T02:14:43.032Z,17.10
2023-06-01T02:14:54.776Z,17.10
2023-06-01T02:15:07.460Z,17.20
2023-06-01T02:15:19.314Z,17.10
2023-06-01T02:15:31.112Z,17.20
2023-06-01T02:15:42.891Z,17.20
2023-06-01T02:15:54.719Z,17.10
2023-06-01T02:16:06.901Z,17.20
2023-06-01T02:16:18.741Z,17.20
2023-06-01T02:16:30.863Z,17.10
2023-06-01T02:16:42.807Z,17.20
2023-06-01T02:16:54.973Z,17.10
2023-06-01T02:17:07.007Z,17.20
2023-06-01T02:17:18.774Z,17.20
2023-06-01T02:17:30.573Z,17.20
2023-06-01T02:17:46.230Z,17.20
2023-06-01T02:18:00.246Z,17.20
2023-06-01T02:18:12.313Z,17.20
2023-06-01T02:18:26.571Z,17.20
2023-06-01T02:18:40.440Z,17.20
2023-06-01T02:18:52.620Z,17.20
2023-06-01T02:19:04.774Z,17.20
2023-06-01T02:19:17.227Z,17.20
2023-06-01T02:19:29.086Z,17.20
2023-06-01T02:19:41.213Z,17.20
2023-06-01T02:19:53.078Z,17.20
2023-06-01T02:20:05.208Z,17.20
2023-06-01T02:20:17.018Z,17.20
2023-06-01T02:20:29.059Z,17.20
2023-06-01T02:20:40.768Z,17.20
2023-06-01T02:20:52.569Z,17.20
2023-06-01T02:21:04.453Z,17.20
2023-06-01T02:21:16.528Z,17.20
2023-06-01T02:21:28.492Z,17.20
2023-06-01T02:21:40.423Z,17.20
2023-06-01T02:21:52.265Z,17.20
2023-06-01T02:22:04.321Z,17.20
2023-06-01T02:22:16.189Z,17.20
2023-06-01T02:22:28.042Z,17.20
2023-06-01T02:22:39.883Z,17.20
2023-06-01T02:22:51.725Z,17.20
2023-06-01T02:23:03.611Z,17.20
2023-06-01T02:23:15.423Z,17.20
2023-06-01T02:23:27.260Z,17.20
2023-06-01T02:23:40.744Z,17.20
2023-06-01T02:23:52.885Z,17.20
2023-06-01T02:24:08.534Z,17.20
2023-06-01T02:24:20.931Z,17.20
2023-06-01T02:24:32.942Z,17.20
2023-06-01T02:24:44.687Z,17.20
2023-06-01T02:24:56.647Z,17.20
2023-06-01T02:25:08.992Z,17.20
2023-06-01T02:25:20.779Z,17.20
2023-06-01T02:25:32.636Z,17.20
2023-06-01T02:25:44.387Z,17.20
2023-06-01T02:25:56.350Z,17.20
2023-06-01T02:26:08.772Z,17.20
2023-06-01T02:26:20.607Z,17.20
2023-06-01T02:26:32.427Z,17.20
2023-06-01T02:26:44.577Z,17.20
2023-06-01T02:26:56.889Z,17.20
2023-06-01T02:27:08.754Z,17.20
2023-06-01T02:27:20.982Z,17.20
2023-06-01T02:27:32.788Z,17.20
2023-06-01T02:27:44.554Z,17.20
2023-06-01T02:27:56.347Z,17.20
2023-06-01T02:28:08.348Z,17.20
2023-06-01T02:28:20.106Z,17.20
2023-06-01T02:28:31.880Z,17.20
2023-06-01T02:28:44.151Z,17.20
2023-06-01T02:28:56.084Z,17.20
2023-06-01T02:29:07.891Z,17.20
2023-06-01T02:29:22.897Z,17.20
2023-06-01T02:29:34.722Z,17.20
2023-06-01T02:29:46.545Z,17.20
2023-06-01T02:29:58.374Z,17.10
2023-06-01T02:30:10.643Z,17.10
2023-06-01T02:30:22.407Z,17.10
2023-06-01T02:30:34.188Z,17.10
2023-06-01T02:30:46.335Z,17.10
2023-06-01T02:30:58.256Z,17.10
2023-06-01T02:31:10.558Z,17.10
2023-06-01T02:31:22.509Z,17.10
2023-06-01T02:31:37.267Z,17.00
2023-06-01T02:31:50.267Z,17.00
2023-06-01T02:32:02.279Z,17.10
2023-06-01T02:32:14.147Z,17.00
2023-06-01T02:32:26.609Z,17.00
2023-06-01T02:32:38.856Z,17.00
2023-06-01T02:32:50.733Z,17.00
2023-06-01T02:33:02.602Z,17.00
2023-06-01T02:33:14.456Z,17.00
2023-06-01T02:33:26.356Z,17.00
2023-06-01T02:33:39.071Z,17.00
2023-06-01T02:33:51.737Z,17.00
2023-06-01T02:34:03.576Z,17.00
2023-06-01T02:34:15.419Z,17.00
2023-06-01T02:34:27.234Z,17.00
2023-06-01T02:34:39.072Z,17.00
2023-06-01T02:34:50.788Z,17.00
2023-06-01T02:35:02.592Z,16.90
2023-06-01T02:35:14.431Z,17.00
2023-06-01T02:35:26.321Z,17.00
2023-06-01T02:35:38.373Z,16.90
2023-06-01T02:35:50.609Z,17.00
2023-06-01T02:36:02.648Z,16.90
2023-06-01T02:36:17.482Z,16.90
2023-06-01T02:36:30.080Z,16.90
2023-06-01T02:36:41.968Z,16.90
2023-06-01T02:36:56.772Z,16.90
2023-06-01T02:37:08.555Z,16.90
2023-06-01T02:37:20.535Z,16.90
2023-06-01T02:37:32.394Z,16.90
2023-06-01T02:37:44.182Z,16.90
2023-06-01T02:37:56.315Z,16.90
2023-06-01T02:38:08.128Z,16.90
2023-06-01T02:38:19.951Z,16.90
2023-06-01T02:38:31.691Z,16.90
2023-06-01T02:38:43.917Z,16.90
2023-06-01T02:38:57.369Z,16.90
2023-06-01T02:39:09.977Z,16.90
2023-06-01T02:39:21.813Z,16.90
2023-06-01T02:39:33.682Z,16.90
2023-06-01T02:39:45.726Z,16.90
2023-06-01T02:39:57.573Z,16.90
2023-06-01T02:40:12.708Z,16.90
2023-06-01T02:40:24.555Z,16.90
2023-06-01T02:40:37.054Z,16.90
2023-06-01T02:40:48.920Z,16.90
2023-06-01T02:41:00.996Z,16.90
2023-06-01T02:41:13.241Z,16.90
2023-06-01T02:41:26.118Z,16.90
2023-06-01T02:41:37.943Z,16.90
2023-06-01T02:41:49.696Z,16.90
2023-06-01T02:42:01.984Z,16.90
2023-06-01T02:42:13.785Z,16.90
2023-06-01T02:42:25.603Z,17.00
2023-06-01T02:42:37.399Z,16.90
2023-06-01T02:42:49.212Z,17.00
2023-06-01T02:43:01.206Z,16.90
2023-06-01T02:43:13.144Z,16.90
2023-06-01T02:43:24.936Z,17.00
2023-06-01T02:43:36.778Z,17.00
2023-06-01T02:43:48.821Z,17.00
2023-06-01T02:44:00.619Z,17.00
2023-06-01T02:44:12.442Z,17.00
2023-06-01T02:44:24.233Z,17.00
2023-06-01T02:44:36.015Z,17.00
2023-06-01T02:44:47.855Z,17.00
2023-06-01T02:44:59.690Z,17.00
2023-06-01T02:45:11.457Z,17.00
2023-06-01T02:45:23.335Z,17.00
2023-06-01T02:45:35.502Z,17.00
2023-06-01T02:45:47.358Z,17.00
2023-06-01T02:45:59.212Z,17.10
2023-06-01T02:46:11.322Z,17.10
2023-06-01T02:46:23.218Z,17.10
2023-06-01T02:46:35.617Z,17.10
2023-06-01T02:46:47.496Z,17.10
2023-06-01T02:46:59.309Z,17.10
2023-06-01T02:47:11.100Z,17.10
2023-06-01T02:47:23.013Z,17.10
2023-06-01T02:47:34.799Z,17.10
2023-06-01T02:47:46.833Z,17.10
2023-06-01T02:47:58.722Z,17.10
2023-06-01T02:48:10.999Z,17.10
2023-06-01T02:48:22.779Z,17.10
2023-06-01T02:48:34.519Z,17.10
2023-06-01T02:48:46.810Z,17.10
2023-06-01T02:48:58.782Z,17.10
2023-06-01T02:49:10.694Z,17.10
2023-06-01T02:49:22.570Z,17.10
2023-06-01T02:49:34.365Z,17.10
2023-06-01T02:49:46.282Z,17.10
2023-06-01T02:49:58.134Z,17.10
2023-06-01T02:50:11.598Z,17.10
2023-06-01T02:50:23.409Z,17.10
2023-06-01T02:50:35.164Z,17.10
2023-06-01T02:50:47.014Z,17.00
2023-06-01T02:50:58.821Z,17.00
2023-06-01T02:51:10.596Z,17.00
2023-06-01T02:51:22.371Z,17.00
2023-06-01T02:51:34.194Z,17.00
2023-06-01T02:51:46.149Z,17.00
2023-06-01T02:51:57.898Z,17.00
2023-06-01T02:52:09.689Z,17.00